Lorissa Jane — WDI4887 — position and weather

sailwx.info

Track history (hours):
 
Tides and Currents Weather Stations Pressure Air Temp Water Temp Dewpoint Dewpoint Depression Visibility Wind Speed Wind Dir Waves Ship Positions

Lorissa Jane

Owner: NGL Marine, LLC, Deer Park, TX. More information available from US FCC via Universal Licensing System and Coast Guard Vessel Documentation Center.

Last reported at 2017-Nov-12 20:46 UTC. Time now 2017-Nov-23 05:29 UTC.
Position N 29°34' W 090°57'.
Warning: this ship's position is 10 days out of date.

; draft 3.1 m.

Type: Towing. MMSI: 367703080.

Date/timePositionNaut miles runAvg speedWind from/ knotsBaromVisibWave heightAir tempDewpointWater temp
2017-Nov-12 20:46N 29°34' W 090°57'2 7.0
2017-Nov-12 20:29N 29°33' W 090°55'3 6.7
2017-Nov-12 20:00N 29°32' W 090°51'3 7.0
2017-Nov-12 19:31N 29°32' W 090°47'3 5.7
2017-Nov-12 19:01N 29°34' W 090°45'2 4.9
2017-Nov-12 18:31N 29°36' W 090°43'2 3.4
2017-Nov-12 18:00N 29°36' W 090°41'3 6.4
2017-Nov-12 17:31N 29°35' W 090°38'3 6.4
2017-Nov-12 16:58N 29°34' W 090°34'3 6.7
2017-Nov-12 16:28N 29°34' W 090°30'  
2017-Nov-07 19:28N 29°33' W 090°27'3 5.7
2017-Nov-07 19:00N 29°34' W 090°30'3 5.6
2017-Nov-07 18:30N 29°34' W 090°33'2 4.9
2017-Nov-07 18:00N 29°35' W 090°36'3 5.2
2017-Nov-07 17:30N 29°35' W 090°39'3 5.1
2017-Nov-07 17:00N 29°37' W 090°41'2 3.4
2017-Nov-07 16:31N 29°35' W 090°43'2 3.2
2017-Nov-07 16:01N 29°34' W 090°44'1 1.8
2017-Nov-07 15:31N 29°34' W 090°45'2 4.3
2017-Nov-07 15:01N 29°32' W 090°46'3 6.1
2017-Nov-07 14:30N 29°32' W 090°50'4 0.7
2017-Nov-07 09:32N 29°33' W 090°54'127 4.1
2017-Nov-06 02:31N 30°04' W 093°16'2 4.2
2017-Nov-06 02:01N 30°05' W 093°18'1 1.5
2017-Nov-06 01:31N 30°06' W 093°18'1 1.1
2017-Nov-06 01:01N 30°06' W 093°19'2 5.0
2017-Nov-06 00:31N 30°04' W 093°21'2 3.9
2017-Nov-06 00:00N 30°04' W 093°23'2 4.3
2017-Nov-05 23:30N 30°04' W 093°25'2 4.8
2017-Nov-05 23:01N 30°04' W 093°28'3 5.6
2017-Nov-05 22:30N 30°04' W 093°31'  
Track history (hours):
 
Tides and Currents Weather Stations Pressure Air Temp Water Temp Dewpoint Dewpoint Depression Visibility Wind Speed Wind Dir Waves Ship Positions

Lorissa Jane

Owner: NGL Marine, LLC, Deer Park, TX. More information available from US FCC via Universal Licensing System and Coast Guard Vessel Documentation Center.

Last reported at 2017-Nov-12 20:46 UTC. Time now 2017-Nov-23 05:29 UTC.
Position N 29°34' W 090°57'.
Warning: this ship's position is 10 days out of date.

; draft 3.1 m.

Type: Towing. MMSI: 367703080.

Date/timePositionNaut miles runAvg speedWind from/ knotsBaromVisibWave heightAir tempDewpointWater temp
2017-Nov-12 20:46N 29°34' W 090°57'2 7.0
2017-Nov-12 20:29N 29°33' W 090°55'3 6.7
2017-Nov-12 20:00N 29°32' W 090°51'3 7.0
2017-Nov-12 19:31N 29°32' W 090°47'3 5.7
2017-Nov-12 19:01N 29°34' W 090°45'2 4.9
2017-Nov-12 18:31N 29°36' W 090°43'2 3.4
2017-Nov-12 18:00N 29°36' W 090°41'3 6.4
2017-Nov-12 17:31N 29°35' W 090°38'3 6.4
2017-Nov-12 16:58N 29°34' W 090°34'3 6.7
2017-Nov-12 16:28N 29°34' W 090°30'  
2017-Nov-07 19:28N 29°33' W 090°27'3 5.7
2017-Nov-07 19:00N 29°34' W 090°30'3 5.6
2017-Nov-07 18:30N 29°34' W 090°33'2 4.9
2017-Nov-07 18:00N 29°35' W 090°36'3 5.2
2017-Nov-07 17:30N 29°35' W 090°39'3 5.1
2017-Nov-07 17:00N 29°37' W 090°41'2 3.4
2017-Nov-07 16:31N 29°35' W 090°43'2 3.2
2017-Nov-07 16:01N 29°34' W 090°44'1 1.8
2017-Nov-07 15:31N 29°34' W 090°45'2 4.3
2017-Nov-07 15:01N 29°32' W 090°46'3 6.1
2017-Nov-07 14:30N 29°32' W 090°50'4 0.7
2017-Nov-07 09:32N 29°33' W 090°54'127 4.1
2017-Nov-06 02:31N 30°04' W 093°16'2 4.2
2017-Nov-06 02:01N 30°05' W 093°18'1 1.5
2017-Nov-06 01:31N 30°06' W 093°18'1 1.1
2017-Nov-06 01:01N 30°06' W 093°19'2 5.0
2017-Nov-06 00:31N 30°04' W 093°21'2 3.9
2017-Nov-06 00:00N 30°04' W 093°23'2 4.3
2017-Nov-05 23:30N 30°04' W 093°25'2 4.8
2017-Nov-05 23:01N 30°04' W 093°28'3 5.6
2017-Nov-05 22:30N 30°04' W 093°31'  

Dump ship's entire track history